MSR768 HECA-LEBL
Flight info
| Callsign | MSR768 |
|---|---|
| Flight time | N/A |
| Altitude | 40000 |
| Route | CVO L617 NABSI M872 ITEXO DCT METRU UL81 LORNO DCT PEROS DCT DORAS DCT QUENN DCT EPIKU DCT GINOX DCT KIFMI/N0498F280 DCT ELVOP DCT MUREN/N0506F290 M601 VERSO |
| Aircraft | A359/H-SDE2E3GHIJ3J4J5LM1ORWXY/LB1D1 |
Departure
| Time | N/A |
|---|---|
| Airport | Cairo International Airport (HECA) |
Arrival
| Time | 2026-05-04 19:48 |
|---|---|
| Airport | Josep Tarradellas Barcelona-El Prat Airport (LEBL) |
| Time | Latitude | Longitude | Altitude | Speed | Heading |
|---|---|---|---|---|---|
| 2026-05-04 18:55 | 41.00498 | 5.60258 | 39954 ft | 432 kts | 271° |
| 2026-05-04 18:55 | 41.00691 | 5.56307 | 39956 ft | 432 kts | 271° |
| 2026-05-04 18:56 | 41.01137 | 5.47080 | 39953 ft | 432 kts | 270° |
| 2026-05-04 18:56 | 41.01445 | 5.40619 | 39952 ft | 432 kts | 270° |
| 2026-05-04 18:57 | 41.01840 | 5.32565 | 39971 ft | 432 kts | 271° |
| 2026-05-04 18:57 | 41.02264 | 5.24608 | 39947 ft | 433 kts | 271° |
| 2026-05-04 18:58 | 41.02684 | 5.16638 | 39943 ft | 433 kts | 271° |
| 2026-05-04 18:58 | 41.02962 | 5.11234 | 39944 ft | 434 kts | 271° |
| 2026-05-04 19:00 | 41.03227 | 5.06050 | 39947 ft | 434 kts | 271° |
| 2026-05-04 19:00 | 41.03623 | 4.98146 | 39941 ft | 433 kts | 270° |
| 2026-05-04 19:01 | 41.04014 | 4.90168 | 39940 ft | 434 kts | 270° |
| 2026-05-04 19:01 | 41.04270 | 4.84883 | 39768 ft | 430 kts | 270° |
| 2026-05-04 19:01 | 41.04397 | 4.82266 | 39412 ft | 429 kts | 270° |
| 2026-05-04 19:02 | 41.04585 | 4.78336 | 38807 ft | 428 kts | 270° |
| 2026-05-04 19:02 | 41.04810 | 4.74404 | 38139 ft | 428 kts | 272° |
| 2026-05-04 19:02 | 41.05174 | 4.70485 | 37366 ft | 429 kts | 274° |
| 2026-05-04 19:02 | 41.05607 | 4.66622 | 36554 ft | 431 kts | 274° |
| 2026-05-04 19:03 | 41.06077 | 4.62696 | 35744 ft | 433 kts | 274° |
| 2026-05-04 19:03 | 41.06552 | 4.58745 | 34922 ft | 435 kts | 274° |
| 2026-05-04 19:03 | 41.07017 | 4.54772 | 34154 ft | 437 kts | 274° |
| 2026-05-04 19:03 | 41.07468 | 4.50774 | 33226 ft | 440 kts | 274° |
| 2026-05-04 19:04 | 41.07911 | 4.46752 | 32281 ft | 442 kts | 273° |
| 2026-05-04 19:04 | 41.08344 | 4.42706 | 31352 ft | 444 kts | 273° |
| 2026-05-04 19:04 | 41.08768 | 4.38704 | 30439 ft | 447 kts | 273° |
| 2026-05-04 19:04 | 41.09202 | 4.34608 | 29409 ft | 449 kts | 273° |
| 2026-05-04 19:05 | 41.09636 | 4.30506 | 28459 ft | 449 kts | 273° |
| 2026-05-04 19:05 | 41.10067 | 4.26441 | 27584 ft | 439 kts | 274° |
| 2026-05-04 19:05 | 41.10488 | 4.22470 | 26179 ft | 432 kts | 274° |
| 2026-05-04 19:05 | 41.10899 | 4.18552 | 24840 ft | 427 kts | 274° |
| 2026-05-04 19:06 | 41.11305 | 4.14672 | 23556 ft | 422 kts | 274° |
| 2026-05-04 19:06 | 41.11699 | 4.10882 | 22257 ft | 423 kts | 274° |
| 2026-05-04 19:06 | 41.12099 | 4.07016 | 21540 ft | 418 kts | 274° |
| 2026-05-04 19:06 | 41.12491 | 4.03230 | 20859 ft | 413 kts | 274° |
| 2026-05-04 19:07 | 41.12878 | 3.99482 | 20252 ft | 408 kts | 275° |
| 2026-05-04 19:07 | 41.13257 | 3.95806 | 19972 ft | 395 kts | 275° |
| 2026-05-04 19:07 | 41.13621 | 3.92286 | 19917 ft | 376 kts | 274° |
| 2026-05-04 19:07 | 41.13965 | 3.88945 | 19919 ft | 357 kts | 274° |
| 2026-05-04 19:08 | 41.14291 | 3.85727 | 19926 ft | 350 kts | 274° |
| 2026-05-04 19:08 | 41.14612 | 3.82524 | 19928 ft | 350 kts | 274° |
| 2026-05-04 19:08 | 41.14929 | 3.79386 | 19770 ft | 344 kts | 274° |
| 2026-05-04 19:08 | 41.15248 | 3.76245 | 19220 ft | 343 kts | 274° |
| 2026-05-04 19:09 | 41.15566 | 3.73104 | 18639 ft | 344 kts | 274° |
| 2026-05-04 19:09 | 41.15880 | 3.69973 | 18095 ft | 343 kts | 274° |
| 2026-05-04 19:09 | 41.16193 | 3.66831 | 17512 ft | 342 kts | 274° |
| 2026-05-04 19:09 | 41.16504 | 3.63716 | 16965 ft | 339 kts | 274° |
| 2026-05-04 19:10 | 41.16812 | 3.60623 | 16430 ft | 337 kts | 274° |
| 2026-05-04 19:10 | 41.17117 | 3.57546 | 15906 ft | 335 kts | 274° |
| 2026-05-04 19:10 | 41.17425 | 3.54539 | 15388 ft | 332 kts | 274° |
| 2026-05-04 19:10 | 41.17725 | 3.51507 | 14874 ft | 330 kts | 274° |
| 2026-05-04 19:11 | 41.18021 | 3.48496 | 14370 ft | 328 kts | 273° |
| 2026-05-04 19:11 | 41.18318 | 3.45502 | 13866 ft | 327 kts | 274° |
| 2026-05-04 19:11 | 41.18613 | 3.42517 | 13313 ft | 325 kts | 273° |
| 2026-05-04 19:11 | 41.18898 | 3.39563 | 12758 ft | 322 kts | 274° |
| 2026-05-04 19:12 | 41.19051 | 3.37975 | 12474 ft | 321 kts | 274° |
| 2026-05-04 19:12 | 41.19624 | 3.32147 | 11446 ft | 316 kts | 274° |
| 2026-05-04 19:12 | 41.19907 | 3.29308 | 10931 ft | 313 kts | 274° |
| 2026-05-04 19:13 | 41.20181 | 3.26486 | 10437 ft | 310 kts | 274° |
| 2026-05-04 19:13 | 41.20453 | 3.23698 | 9928 ft | 309 kts | 274° |
| 2026-05-04 19:13 | 41.20723 | 3.20905 | 9572 ft | 299 kts | 274° |
| 2026-05-04 19:13 | 41.20980 | 3.18270 | 9159 ft | 279 kts | 274° |
| 2026-05-04 19:14 | 41.21223 | 3.15747 | 8486 ft | 272 kts | 274° |
| 2026-05-04 19:14 | 41.21459 | 3.13278 | 7748 ft | 268 kts | 274° |
| 2026-05-04 19:14 | 41.21692 | 3.10844 | 7061 ft | 264 kts | 274° |
| 2026-05-04 19:14 | 41.21922 | 3.08444 | 6569 ft | 265 kts | 274° |
| 2026-05-04 19:15 | 41.22150 | 3.06028 | 6355 ft | 255 kts | 274° |
| 2026-05-04 19:15 | 41.22341 | 3.03759 | 6178 ft | 245 kts | 273° |
| 2026-05-04 19:15 | 41.22511 | 3.01553 | 6001 ft | 235 kts | 272° |
| 2026-05-04 19:15 | 41.22674 | 2.99442 | 5847 ft | 225 kts | 273° |
| 2026-05-04 19:16 | 41.22832 | 2.97411 | 5660 ft | 218 kts | 272° |
| 2026-05-04 19:16 | 41.22986 | 2.95428 | 5372 ft | 215 kts | 272° |
| 2026-05-04 19:16 | 41.23144 | 2.93452 | 5028 ft | 215 kts | 273° |
| 2026-05-04 19:16 | 41.23315 | 2.91486 | 4697 ft | 215 kts | 273° |
| 2026-05-04 19:17 | 41.23487 | 2.89521 | 4356 ft | 213 kts | 273° |
| 2026-05-04 19:17 | 41.23658 | 2.87576 | 4084 ft | 210 kts | 273° |
| 2026-05-04 19:17 | 41.23826 | 2.85651 | 3993 ft | 211 kts | 274° |
| 2026-05-04 19:17 | 41.23995 | 2.83706 | 3986 ft | 211 kts | 273° |
| 2026-05-04 19:18 | 41.24161 | 2.81800 | 3993 ft | 210 kts | 274° |
| 2026-05-04 19:18 | 41.24326 | 2.79878 | 3973 ft | 209 kts | 274° |
| 2026-05-04 19:18 | 41.24493 | 2.77952 | 3975 ft | 211 kts | 274° |
| 2026-05-04 19:18 | 41.24660 | 2.76020 | 3978 ft | 210 kts | 273° |
| 2026-05-04 19:19 | 41.24825 | 2.74094 | 3981 ft | 210 kts | 273° |
| 2026-05-04 19:19 | 41.24990 | 2.72169 | 3982 ft | 209 kts | 273° |
| 2026-05-04 19:19 | 41.25154 | 2.70242 | 3982 ft | 210 kts | 274° |
| 2026-05-04 19:19 | 41.25319 | 2.68310 | 3976 ft | 211 kts | 273° |
| 2026-05-04 19:20 | 41.25454 | 2.66400 | 3992 ft | 210 kts | 269° |
| 2026-05-04 19:20 | 41.25447 | 2.64479 | 3986 ft | 207 kts | 266° |
| 2026-05-04 19:20 | 41.25390 | 2.62568 | 3985 ft | 207 kts | 265° |
| 2026-05-04 19:20 | 41.25329 | 2.60674 | 3985 ft | 207 kts | 265° |
| 2026-05-04 19:21 | 41.25268 | 2.58761 | 3986 ft | 207 kts | 265° |
| 2026-05-04 19:21 | 41.25221 | 2.57268 | 3983 ft | 207 kts | 265° |
| 2026-05-04 19:21 | 41.25179 | 2.55923 | 3987 ft | 207 kts | 265° |
| 2026-05-04 19:21 | 41.25120 | 2.54014 | 3986 ft | 207 kts | 265° |
| 2026-05-04 19:22 | 41.25065 | 2.52096 | 3987 ft | 208 kts | 265° |
| 2026-05-04 19:22 | 41.25004 | 2.50181 | 3990 ft | 207 kts | 265° |
| 2026-05-04 19:22 | 41.24943 | 2.48273 | 3985 ft | 207 kts | 265° |
| 2026-05-04 19:22 | 41.24882 | 2.46388 | 3989 ft | 207 kts | 265° |
| 2026-05-04 19:23 | 41.24918 | 2.44465 | 3983 ft | 210 kts | 276° |
| 2026-05-04 19:23 | 41.25461 | 2.42651 | 3989 ft | 215 kts | 301° |
| 2026-05-04 19:23 | 41.26498 | 2.41406 | 3996 ft | 222 kts | 325° |
| 2026-05-04 19:23 | 41.27890 | 2.40501 | 3993 ft | 225 kts | 332° |
| 2026-05-04 19:24 | 41.29302 | 2.39685 | 3990 ft | 225 kts | 332° |
| 2026-05-04 19:24 | 41.30801 | 2.39096 | 3977 ft | 223 kts | 351° |
| 2026-05-04 19:24 | 41.32268 | 2.39473 | 3987 ft | 212 kts | 25° |
| 2026-05-04 19:24 | 41.33328 | 2.40781 | 4001 ft | 209 kts | 57° |
| 2026-05-04 19:25 | 41.33984 | 2.42460 | 3996 ft | 209 kts | 66° |
| 2026-05-04 19:25 | 41.34493 | 2.43997 | 3987 ft | 210 kts | 69° |
| 2026-05-04 19:25 | 41.34959 | 2.45071 | 3982 ft | 212 kts | 49° |
| 2026-05-04 19:25 | 41.35962 | 2.46040 | 3988 ft | 205 kts | 17° |
| 2026-05-04 19:26 | 41.37331 | 2.46137 | 3988 ft | 195 kts | 339° |
| 2026-05-04 19:26 | 41.38406 | 2.45172 | 3990 ft | 184 kts | 302° |
| 2026-05-04 19:26 | 41.38787 | 2.43617 | 4000 ft | 176 kts | 269° |
| 2026-05-04 19:26 | 41.38744 | 2.41993 | 3995 ft | 176 kts | 263° |
| 2026-05-04 19:27 | 41.38624 | 2.40370 | 3990 ft | 176 kts | 262° |
| 2026-05-04 19:27 | 41.38490 | 2.38747 | 3988 ft | 176 kts | 262° |
| 2026-05-04 19:27 | 41.38359 | 2.37174 | 3990 ft | 176 kts | 262° |
| 2026-05-04 19:27 | 41.38228 | 2.35540 | 3988 ft | 175 kts | 262° |
| 2026-05-04 19:28 | 41.38097 | 2.33921 | 3953 ft | 177 kts | 262° |
| 2026-05-04 19:28 | 41.37934 | 2.32317 | 3855 ft | 176 kts | 256° |
| 2026-05-04 19:28 | 41.37575 | 2.30795 | 3748 ft | 170 kts | 246° |
| 2026-05-04 19:28 | 41.37099 | 2.29386 | 3501 ft | 164 kts | 244° |
| 2026-05-04 19:29 | 41.36600 | 2.27998 | 3148 ft | 166 kts | 246° |
| 2026-05-04 19:29 | 41.36110 | 2.26589 | 2752 ft | 170 kts | 246° |
| 2026-05-04 19:29 | 41.35632 | 2.25178 | 2451 ft | 164 kts | 247° |
| 2026-05-04 19:29 | 41.35175 | 2.23825 | 2236 ft | 157 kts | 246° |
| 2026-05-04 19:30 | 41.34721 | 2.22500 | 2034 ft | 158 kts | 246° |
| 2026-05-04 19:30 | 41.34274 | 2.21196 | 1824 ft | 156 kts | 247° |
| 2026-05-04 19:30 | 41.33829 | 2.19891 | 1620 ft | 153 kts | 246° |
| 2026-05-04 19:30 | 41.33408 | 2.18660 | 1401 ft | 141 kts | 246° |
| 2026-05-04 19:31 | 41.33016 | 2.17513 | 1232 ft | 132 kts | 245° |
| 2026-05-04 19:31 | 41.32641 | 2.16409 | 1011 ft | 130 kts | 246° |
| 2026-05-04 19:31 | 41.32274 | 2.15326 | 900 ft | 129 kts | 247° |
| 2026-05-04 19:31 | 41.31903 | 2.14239 | 691 ft | 128 kts | 247° |
| 2026-05-04 19:32 | 41.31526 | 2.13168 | 533 ft | 128 kts | 245° |
| 2026-05-04 19:32 | 41.31146 | 2.12088 | 363 ft | 129 kts | 246° |
| 2026-05-04 19:32 | 41.30789 | 2.11019 | 182 ft | 128 kts | 246° |
| 2026-05-04 19:32 | 41.30425 | 2.09949 | 37 ft | 126 kts | 244° |
| 2026-05-04 19:33 | 41.30123 | 2.09066 | 101 ft | 108 kts | 246° |
| 2026-05-04 19:33 | 41.29833 | 2.08137 | 465 ft | 133 kts | 248° |
| 2026-05-04 19:33 | 41.29450 | 2.06852 | 1304 ft | 161 kts | 249° |
| 2026-05-04 19:33 | 41.28986 | 2.05402 | 2342 ft | 176 kts | 247° |
| 2026-05-04 19:34 | 41.28715 | 2.04574 | 2664 ft | 180 kts | 246° |
| 2026-05-04 19:34 | 41.28286 | 2.03259 | 3088 ft | 185 kts | 247° |
| 2026-05-04 19:34 | 41.27780 | 2.01698 | 3664 ft | 184 kts | 247° |
| 2026-05-04 19:34 | 41.27277 | 2.00163 | 3951 ft | 184 kts | 247° |
| 2026-05-04 19:35 | 41.26728 | 1.98632 | 3983 ft | 185 kts | 240° |
| 2026-05-04 19:35 | 41.26055 | 1.97774 | 3991 ft | 190 kts | 213° |
| 2026-05-04 19:35 | 41.24751 | 1.97427 | 3990 ft | 200 kts | 178° |
| 2026-05-04 19:35 | 41.23466 | 1.98216 | 3999 ft | 216 kts | 142° |
| 2026-05-04 19:36 | 41.22663 | 1.99940 | 3998 ft | 227 kts | 108° |
| 2026-05-04 19:36 | 41.22578 | 2.02033 | 4005 ft | 229 kts | 85° |
| 2026-05-04 19:36 | 41.22779 | 2.04144 | 3995 ft | 230 kts | 82° |
| 2026-05-04 19:36 | 41.23022 | 2.06247 | 3993 ft | 231 kts | 82° |
| 2026-05-04 19:37 | 41.23266 | 2.08328 | 3996 ft | 230 kts | 82° |
| 2026-05-04 19:37 | 41.23531 | 2.10422 | 3985 ft | 231 kts | 77° |
| 2026-05-04 19:37 | 41.24037 | 2.12437 | 3994 ft | 230 kts | 68° |
| 2026-05-04 19:37 | 41.24638 | 2.14409 | 3991 ft | 230 kts | 67° |
| 2026-05-04 19:38 | 41.25251 | 2.16378 | 3991 ft | 231 kts | 66° |
| 2026-05-04 19:38 | 41.25861 | 2.18345 | 3992 ft | 231 kts | 67° |
| 2026-05-04 19:38 | 41.26471 | 2.20314 | 3993 ft | 231 kts | 67° |
| 2026-05-04 19:38 | 41.27085 | 2.22290 | 3995 ft | 231 kts | 66° |
| 2026-05-04 19:39 | 41.27694 | 2.24262 | 3991 ft | 231 kts | 67° |
| 2026-05-04 19:39 | 41.28307 | 2.26240 | 3992 ft | 231 kts | 66° |
| 2026-05-04 19:39 | 41.28917 | 2.28216 | 3996 ft | 231 kts | 66° |
| 2026-05-04 19:39 | 41.29525 | 2.30190 | 3991 ft | 231 kts | 68° |
| 2026-05-04 19:40 | 41.30143 | 2.32133 | 3990 ft | 231 kts | 67° |
| 2026-05-04 19:40 | 41.30781 | 2.34099 | 3999 ft | 232 kts | 67° |
| 2026-05-04 19:40 | 41.31419 | 2.36074 | 3992 ft | 232 kts | 67° |
| 2026-05-04 19:40 | 41.32056 | 2.38040 | 3992 ft | 232 kts | 67° |
| 2026-05-04 19:41 | 41.32698 | 2.40013 | 3980 ft | 232 kts | 67° |
| 2026-05-04 19:41 | 41.33551 | 2.41830 | 3635 ft | 233 kts | 42° |
| 2026-05-04 19:41 | 41.34920 | 2.42799 | 3426 ft | 217 kts | 7° |
| 2026-05-04 19:41 | 41.36323 | 2.42620 | 3240 ft | 197 kts | 332° |
| 2026-05-04 19:42 | 41.37287 | 2.41478 | 3038 ft | 180 kts | 294° |
| 2026-05-04 19:42 | 41.37740 | 2.39974 | 3004 ft | 178 kts | 284° |
| 2026-05-04 19:42 | 41.38081 | 2.38393 | 3004 ft | 177 kts | 282° |
| 2026-05-04 19:42 | 41.38402 | 2.36818 | 2996 ft | 176 kts | 282° |
| 2026-05-04 19:43 | 41.38692 | 2.35234 | 2981 ft | 175 kts | 274° |
| 2026-05-04 19:43 | 41.38479 | 2.33667 | 3012 ft | 172 kts | 249° |
| 2026-05-04 19:43 | 41.38018 | 2.32200 | 3010 ft | 173 kts | 247° |
| 2026-05-04 19:43 | 41.37533 | 2.30734 | 3010 ft | 173 kts | 246° |
| 2026-05-04 19:44 | 41.37038 | 2.29279 | 3011 ft | 172 kts | 245° |
| 2026-05-04 19:44 | 41.36539 | 2.27826 | 2929 ft | 172 kts | 249° |
| 2026-05-04 19:44 | 41.36047 | 2.26359 | 2692 ft | 174 kts | 248° |
| 2026-05-04 19:44 | 41.35547 | 2.24886 | 2448 ft | 175 kts | 248° |
| 2026-05-04 19:45 | 41.35054 | 2.23455 | 2197 ft | 164 kts | 248° |
| 2026-05-04 19:45 | 41.34600 | 2.22124 | 2008 ft | 157 kts | 248° |
| 2026-05-04 19:45 | 41.34150 | 2.20812 | 1788 ft | 155 kts | 248° |
| 2026-05-04 19:45 | 41.33700 | 2.19502 | 1574 ft | 154 kts | 247° |
| 2026-05-04 19:46 | 41.33278 | 2.18256 | 1370 ft | 142 kts | 248° |
| 2026-05-04 19:46 | 41.32902 | 2.17099 | 1203 ft | 132 kts | 246° |
| 2026-05-04 19:46 | 41.32525 | 2.16009 | 1036 ft | 128 kts | 245° |
| 2026-05-04 19:46 | 41.32146 | 2.14930 | 835 ft | 128 kts | 246° |
| 2026-05-04 19:47 | 41.31777 | 2.13866 | 657 ft | 126 kts | 246° |
| 2026-05-04 19:47 | 41.31410 | 2.12813 | 488 ft | 126 kts | 245° |
| 2026-05-04 19:47 | 41.31040 | 2.11752 | 310 ft | 129 kts | 246° |
| 2026-05-04 19:47 | 41.30677 | 2.10684 | 119 ft | 126 kts | 244° |
| 2026-05-04 19:48 | 41.30320 | 2.09635 | 30 ft | 120 kts | 245° |
| 2026-05-04 19:48 | 41.30021 | 2.08765 | 28 ft | 87 kts | 245° |
| 2026-05-04 19:48 | 41.29806 | 2.08140 | 27 ft | 59 kts | 245° |
| 2026-05-04 19:48 | 41.29718 | 2.07964 | 28 ft | 14 kts | 225° |
| 2026-05-04 19:49 | 41.29645 | 2.07877 | 25 ft | 14 kts | 216° |
| 2026-05-04 19:49 | 41.29589 | 2.07825 | 27 ft | 10 kts | 215° |
| 2026-05-04 19:49 | 41.29524 | 2.07763 | 27 ft | 13 kts | 216° |